Time;durP1;ratioP1;P1;durP2;ratioP2;P2;SDS_P1;SDS_P2;PMS_P1;PMS_P2;Temp;Humidity;BMP_temperature;BMP_pressure;BME280_temperature;BME280_humidity;BME280_pressure;Samples;Min_cycle;Max_cycle;Signal;HPM_P1;HPM_P2
2023/05/09 00:01:11;;;;;;;35.45;30.02;;;15.20;99.90;;;;;;4973263;28;90321;-33
2023/05/09 00:03:37;;;;;;;37.65;25.77;;;15.20;99.90;;;;;;4960574;28;88970;-34
2023/05/09 00:06:04;;;;;;;34.45;27.50;;;15.20;99.90;;;;;;4960826;28;88282;-31
2023/05/09 00:08:30;;;;;;;29.15;23.45;;;15.10;99.90;;;;;;4961030;28;90399;-30
2023/05/09 00:10:55;;;;;;;25.35;22.58;;;15.20;99.90;;;;;;4960039;28;90179;-34
2023/05/09 00:13:22;;;;;;;28.38;24.08;;;15.20;99.90;;;;;;4960390;28;89266;-35
2023/05/09 00:15:48;;;;;;;34.17;23.25;;;15.10;99.90;;;;;;4960154;28;89490;-31
2023/05/09 00:18:13;;;;;;;27.08;21.23;;;15.10;99.90;;;;;;4968318;28;90249;-34
2023/05/09 00:20:43;;;;;;;26.65;21.25;;;15.00;99.90;;;;;;4972348;28;89479;-34
2023/05/09 00:23:09;;;;;;;26.85;20.83;;;15.10;99.90;;;;;;4972135;28;90295;-30
2023/05/09 00:25:34;;;;;;;20.90;18.40;;;15.00;99.90;;;;;;4960477;28;88228;-34
2023/05/09 00:28:00;;;;;;;20.88;17.35;;;15.00;99.90;;;;;;4959487;28;90255;-32
2023/05/09 00:30:25;;;;;;;19.05;16.88;;;14.90;99.90;;;;;;4959312;28;89261;-34
2023/05/09 00:32:51;;;;;;;19.73;17.42;;;14.90;99.90;;;;;;4965154;28;89309;-30
2023/05/09 00:35:17;;;;;;;19.05;15.55;;;14.90;99.90;;;;;;4982782;28;88521;-32
2023/05/09 00:37:42;;;;;;;17.80;15.98;;;14.90;99.90;;;;;;4969459;28;90154;-35
2023/05/09 00:40:08;;;;;;;19.38;15.55;;;14.80;99.90;;;;;;4963426;28;89322;-35
2023/05/09 00:42:35;;;;;;;21.10;15.93;;;14.80;99.90;;;;;;4965279;28;89053;-30
2023/05/09 00:45:01;;;;;;;19.10;15.40;;;14.80;99.90;;;;;;4964252;28;89341;-33
2023/05/09 00:47:28;;;;;;;17.27;15.30;;;14.80;99.90;;;;;;4965929;28;90411;-34
2023/05/09 00:49:55;;;;;;;18.83;15.38;;;14.80;99.90;;;;;;4973793;28;90132;-31
2023/05/09 00:52:24;;;;;;;15.48;13.93;;;14.80;99.90;;;;;;4965565;28;89358;-33
2023/05/09 00:54:52;;;;;;;16.08;13.85;;;14.70;99.90;;;;;;4964312;28;88632;-33
2023/05/09 00:57:17;;;;;;;19.27;15.60;;;14.70;99.90;;;;;;4976096;28;90327;-31
2023/05/09 00:59:43;;;;;;;18.15;14.82;;;14.70;99.90;;;;;;4962420;28;89505;-35
2023/05/09 01:02:09;;;;;;;16.38;14.48;;;14.70;99.90;;;;;;4963560;28;89143;-33
2023/05/09 01:04:35;;;;;;;15.63;14.05;;;14.70;99.90;;;;;;4962904;28;88898;-31
2023/05/09 01:07:02;;;;;;;18.75;14.57;;;14.60;99.90;;;;;;4962553;28;90215;-34
2023/05/09 01:09:31;;;;;;;15.07;12.82;;;14.60;99.90;;;;;;4960549;28;90401;-31
2023/05/09 01:12:02;;;;;;;;;;;14.60;99.90;;;;;;4975791;28;88920;-30
2023/05/09 01:14:56;;;;;;;13.05;10.98;;;14.60;99.90;;;;;;4964698;28;88959;-31
2023/05/09 01:17:48;;;;;;;15.43;13.50;;;14.60;99.90;;;;;;4961433;28;90652;-32
2023/05/09 01:20:25;;;;;;;14.90;13.32;;;14.60;99.90;;;;;;4944293;28;88332;-30
2023/05/09 01:23:13;;;;;;;24.33;15.32;;;14.50;99.90;;;;;;5000835;28;89223;-33
2023/05/09 01:25:57;;;;;;;17.75;13.90;;;14.50;99.90;;;;;;4977839;28;88728;-32
2023/05/09 01:28:37;;;;;;;14.52;12.35;;;14.50;99.90;;;;;;4995286;28;89389;-35
2023/05/09 01:31:04;;;;;;;16.98;14.23;;;14.50;99.90;;;;;;4993444;28;89644;-35
2023/05/09 01:33:35;;;;;;;15.40;13.73;;;14.50;99.90;;;;;;4960896;28;89942;-33
2023/05/09 01:36:05;;;;;;;16.92;13.70;;;14.50;99.90;;;;;;4961143;28;88856;-35
2023/05/09 01:38:33;;;;;;;14.00;11.93;;;14.50;99.90;;;;;;4969221;28;90806;-31
2023/05/09 01:41:03;;;;;;;15.38;13.88;;;14.50;99.90;;;;;;4965603;28;89829;-34
2023/05/09 01:43:31;;;;;;;14.85;11.40;;;14.50;99.90;;;;;;4960145;28;89256;-32
2023/05/09 01:45:58;;;;;;;17.48;15.50;;;14.50;99.90;;;;;;4973836;28;89475;-32
2023/05/09 01:48:26;;;;;;;16.85;14.05;;;14.50;99.90;;;;;;4960314;28;92140;-31
2023/05/09 01:50:53;;;;;;;17.15;13.05;;;14.40;99.90;;;;;;4968207;28;90080;-29
2023/05/09 01:53:20;;;;;;;21.47;15.90;;;14.40;99.90;;;;;;4999719;28;89506;-33
2023/05/09 01:55:47;;;;;;;16.77;14.63;;;14.40;99.90;;;;;;4999818;28;88478;-33
2023/05/09 01:58:14;;;;;;;19.67;15.43;;;14.40;99.90;;;;;;4999687;28;89190;-34
2023/05/09 02:00:41;;;;;;;19.23;13.70;;;14.30;99.90;;;;;;4998264;28;90255;-32
2023/05/09 02:03:07;;;;;;;16.38;14.63;;;14.30;99.90;;;;;;4999539;28;90133;-34
2023/05/09 02:05:33;;;;;;;16.48;14.73;;;14.30;99.90;;;;;;4998011;28;88817;-34
2023/05/09 02:07:59;;;;;;;17.83;15.38;;;14.30;99.90;;;;;;4998365;28;90616;-33
2023/05/09 02:10:29;;;;;;;14.63;12.85;;;14.30;99.90;;;;;;4997302;28;89854;-33
2023/05/09 02:12:56;;;;;;;16.55;13.65;;;14.30;99.90;;;;;;4998936;28;89370;-32
2023/05/09 02:15:22;;;;;;;15.20;12.77;;;14.30;99.90;;;;;;4999137;28;88313;-31
2023/05/09 02:17:47;;;;;;;13.27;11.93;;;14.20;99.90;;;;;;4997932;28;89807;-32
2023/05/09 02:20:13;;;;;;;16.88;12.35;;;14.20;99.90;;;;;;4982459;28;89147;-32
2023/05/09 02:22:40;;;;;;;14.75;12.02;;;14.30;99.90;;;;;;4969400;28;89335;-31
2023/05/09 02:25:07;;;;;;;16.42;14.15;;;14.20;99.90;;;;;;4972876;28;90598;-35
2023/05/09 02:27:34;;;;;;;16.52;13.52;;;14.20;99.90;;;;;;4971241;28;89673;-32
2023/05/09 02:30:03;;;;;;;15.00;11.80;;;14.20;99.90;;;;;;4962007;28;90633;-33
2023/05/09 02:32:34;;;;;;;16.05;12.23;;;14.20;99.90;;;;;;4958959;28;90511;-33
2023/05/09 02:35:01;;;;;;;14.93;13.35;;;14.10;99.90;;;;;;4984272;28;88576;-32
2023/05/09 02:37:27;;;;;;;13.60;12.15;;;14.20;99.90;;;;;;4997989;28;90440;-32
2023/05/09 02:39:57;;;;;;;15.70;14.10;;;14.20;99.90;;;;;;4998744;28;89561;-32
2023/05/09 02:42:24;;;;;;;16.25;12.18;;;14.20;99.90;;;;;;4997947;28;88344;-30
2023/05/09 02:44:53;;;;;;;16.70;13.18;;;14.20;99.90;;;;;;4998512;28;89293;-33
2023/05/09 02:47:19;;;;;;;15.10;13.10;;;14.20;99.90;;;;;;4998051;28;90493;-31
2023/05/09 02:49:44;;;;;;;16.73;14.23;;;14.20;99.90;;;;;;4998032;28;90558;-33
2023/05/09 02:52:10;;;;;;;15.93;14.25;;;14.20;99.90;;;;;;4993664;28;90278;-30
2023/05/09 02:54:36;;;;;;;17.00;13.77;;;14.10;99.90;;;;;;4997761;28;89455;-29
2023/05/09 02:57:02;;;;;;;16.20;14.15;;;14.10;99.90;;;;;;4993471;28;90240;-34
2023/05/09 02:59:28;;;;;;;13.57;12.15;;;14.20;99.90;;;;;;4996083;28;89710;-30
2023/05/09 03:01:54;;;;;;;18.63;13.82;;;14.20;99.90;;;;;;4993325;28;89570;-31
2023/05/09 03:04:19;;;;;;;16.25;14.32;;;14.20;99.90;;;;;;4996103;28;88569;-30
2023/05/09 03:06:45;;;;;;;17.58;15.00;;;14.20;99.90;;;;;;4993953;28;90028;-33
2023/05/09 03:09:11;;;;;;;15.07;12.38;;;14.20;99.90;;;;;;4997115;28;89710;-32
2023/05/09 03:11:36;;;;;;;19.70;15.07;;;14.10;99.90;;;;;;4995423;28;89955;-31
2023/05/09 03:14:03;;;;;;;16.80;13.65;;;14.10;99.90;;;;;;4997079;28;89234;-35
2023/05/09 03:16:28;;;;;;;18.23;14.63;;;14.20;99.90;;;;;;4994988;28;90288;-31
2023/05/09 03:18:54;;;;;;;19.65;15.60;;;14.10;99.90;;;;;;4992231;28;89998;-31
2023/05/09 03:21:20;;;;;;;18.83;16.10;;;14.10;99.90;;;;;;4966408;28;89717;-32
2023/05/09 03:23:45;;;;;;;22.60;14.50;;;14.10;99.90;;;;;;4958347;28;88711;-31
2023/05/09 03:26:11;;;;;;;17.15;15.10;;;14.10;99.90;;;;;;4959562;28;90274;-31
2023/05/09 03:28:37;;;;;;;19.17;15.70;;;14.10;99.90;;;;;;4964691;28;89519;-32
2023/05/09 03:31:03;;;;;;;21.60;15.38;;;14.00;99.90;;;;;;4991116;28;89862;-31
2023/05/09 03:33:29;;;;;;;19.35;15.88;;;14.10;99.90;;;;;;4971600;28;88020;-33
2023/05/09 03:35:54;;;;;;;16.77;14.27;;;14.10;99.90;;;;;;4971363;28;90737;-34
2023/05/09 03:38:23;;;;;;;18.23;13.57;;;14.00;99.90;;;;;;4971024;28;90329;-31
2023/05/09 03:40:54;;;;;;;20.73;16.80;;;14.00;99.90;;;;;;4996508;28;89991;-33
2023/05/09 03:43:20;;;;;;;20.15;14.85;;;14.00;99.90;;;;;;4973816;28;89953;-35
2023/05/09 03:45:45;;;;;;;21.60;18.48;;;14.00;99.90;;;;;;4983636;28;91033;-33
2023/05/09 03:48:11;;;;;;;21.25;16.98;;;14.00;99.90;;;;;;4996923;28;89945;-35
2023/05/09 03:50:36;;;;;;;19.95;17.08;;;14.00;99.90;;;;;;4997215;28;89583;-34
2023/05/09 03:53:03;;;;;;;21.38;18.17;;;14.00;99.90;;;;;;4997336;28;89646;-31
2023/05/09 03:55:28;;;;;;;19.98;17.75;;;14.00;99.90;;;;;;4982840;28;90151;-33
2023/05/09 03:57:54;;;;;;;22.83;18.67;;;14.00;99.90;;;;;;4996234;28;90129;-32
2023/05/09 04:00:21;;;;;;;21.70;17.50;;;14.00;99.90;;;;;;4992632;28;89564;-31
2023/05/09 04:02:49;;;;;;;18.42;16.08;;;14.00;99.90;;;;;;4983211;28;90064;-32
2023/05/09 04:05:15;;;;;;;22.00;18.08;;;14.00;99.90;;;;;;4996228;28;89879;-31
2023/05/09 04:07:41;;;;;;;23.88;20.00;;;14.00;99.90;;;;;;4995884;28;90975;-31
2023/05/09 04:10:08;;;;;;;24.90;19.33;;;14.00;99.90;;;;;;5029690;22;89822;-34
2023/05/09 04:12:34;;;;;;;19.45;17.05;;;14.00;99.90;;;;;;4998303;28;87740;-32
2023/05/09 04:14:59;;;;;;;23.20;18.05;;;14.00;99.90;;;;;;4997478;28;90218;-32
2023/05/09 04:17:25;;;;;;;20.83;16.83;;;14.00;99.90;;;;;;4997640;28;89304;-31
2023/05/09 04:19:51;;;;;;;26.45;19.95;;;14.00;99.90;;;;;;4995550;28;89726;-32
2023/05/09 04:22:17;;;;;;;25.05;19.38;;;14.00;99.90;;;;;;4997795;28;88205;-34
2023/05/09 04:24:42;;;;;;;23.70;19.77;;;14.00;99.90;;;;;;4996470;28;90209;-33
2023/05/09 04:27:08;;;;;;;24.83;19.75;;;14.00;99.90;;;;;;4997611;28;90029;-32
2023/05/09 04:29:34;;;;;;;22.67;19.40;;;14.00;99.90;;;;;;4996619;28;91957;-31
2023/05/09 04:32:00;;;;;;;27.55;20.65;;;14.00;99.90;;;;;;4997120;28;88501;-31
2023/05/09 04:34:26;;;;;;;24.77;19.05;;;14.00;99.90;;;;;;4996820;28;89822;-33
2023/05/09 04:36:52;;;;;;;27.08;19.45;;;14.00;99.90;;;;;;4998070;28;89924;-30
2023/05/09 04:39:18;;;;;;;23.02;18.30;;;14.00;99.90;;;;;;4996831;28;89771;-34
2023/05/09 04:41:46;;;;;;;23.25;20.13;;;14.00;99.90;;;;;;4997226;28;87569;-32
2023/05/09 04:44:12;;;;;;;29.08;20.77;;;13.90;99.90;;;;;;4995427;28;90011;-31
2023/05/09 04:46:38;;;;;;;27.13;20.20;;;14.00;99.90;;;;;;4997542;28;89224;-33
2023/05/09 04:49:04;;;;;;;27.90;21.35;;;14.00;99.90;;;;;;4997341;28;89601;-32
2023/05/09 04:51:30;;;;;;;32.75;24.60;;;14.00;99.90;;;;;;4996679;28;88416;-32
2023/05/09 04:53:55;;;;;;;26.83;21.45;;;14.00;99.90;;;;;;4996400;28;90357;-31
2023/05/09 04:56:21;;;;;;;29.75;22.13;;;14.00;99.90;;;;;;4996995;28;91121;-35
2023/05/09 04:58:47;;;;;;;25.88;21.77;;;14.00;99.90;;;;;;4996356;28;89286;-33
2023/05/09 05:01:13;;;;;;;28.10;22.98;;;14.10;99.90;;;;;;4996175;28;89193;-33
2023/05/09 05:03:38;;;;;;;26.65;23.55;;;14.10;99.90;;;;;;4993591;28;90408;-31
2023/05/09 05:06:05;;;;;;;29.17;21.77;;;14.10;99.90;;;;;;4995547;28;90287;-33
2023/05/09 05:08:31;;;;;;;30.27;23.55;;;14.20;99.90;;;;;;4994477;28;91470;-33
2023/05/09 05:10:56;;;;;;;29.60;23.88;;;14.20;99.90;;;;;;4987377;28;89474;-36
2023/05/09 05:13:22;;;;;;;29.92;21.83;;;14.30;99.90;;;;;;4986587;28;90256;-32
2023/05/09 05:15:48;;;;;;;25.08;21.35;;;14.30;99.90;;;;;;4987275;28;91815;-31
2023/05/09 05:18:14;;;;;;;31.77;24.25;;;14.30;99.90;;;;;;4995666;28;89992;-32
2023/05/09 05:20:40;;;;;;;28.35;23.25;;;14.40;99.90;;;;;;4993802;28;88310;-33
2023/05/09 05:23:06;;;;;;;30.10;23.17;;;14.40;99.90;;;;;;4994666;28;90366;-35
2023/05/09 05:25:32;;;;;;;28.67;24.58;;;14.40;99.90;;;;;;4995481;28;89551;-35
2023/05/09 05:27:57;;;;;;;29.13;22.85;;;14.40;99.90;;;;;;4989243;28;88865;-33
2023/05/09 05:30:23;;;;;;;27.95;22.70;;;14.50;99.90;;;;;;4994896;28;88588;-33
2023/05/09 05:32:48;;;;;;;29.73;23.42;;;14.50;99.90;;;;;;4993527;28;90422;-36
2023/05/09 05:35:14;;;;;;;27.27;22.85;;;14.50;99.90;;;;;;4998548;28;89405;-34
2023/05/09 05:37:40;;;;;;;27.20;21.95;;;14.50;99.90;;;;;;4999123;28;89562;-31
2023/05/09 05:40:07;;;;;;;28.17;22.58;;;14.60;99.90;;;;;;4998401;28;89674;-36
2023/05/09 05:42:33;;;;;;;25.23;21.20;;;14.60;99.90;;;;;;4997349;28;90709;-34
2023/05/09 05:45:05;;;;;;;27.60;21.42;;;14.60;99.90;;;;;;5000029;28;89557;-31
2023/05/09 05:47:34;;;;;;;34.80;22.88;;;14.60;99.90;;;;;;4996908;28;89714;-36
2023/05/09 05:50:00;;;;;;;32.47;26.20;;;14.60;99.90;;;;;;5000880;28;88910;-31
2023/05/09 05:52:26;;;;;;;31.38;25.13;;;14.60;99.90;;;;;;4995070;28;89851;-33
2023/05/09 05:54:52;;;;;;;27.23;22.95;;;14.60;99.90;;;;;;4998552;28;89489;-32
2023/05/09 05:57:18;;;;;;;30.88;24.30;;;14.70;99.90;;;;;;4996825;28;90464;-32
2023/05/09 05:59:47;;;;;;;28.67;25.60;;;14.70;99.90;;;;;;4998601;28;88171;-33
2023/05/09 06:02:13;;;;;;;31.08;24.95;;;14.60;99.90;;;;;;4997058;28;90214;-33
2023/05/09 06:04:39;;;;;;;32.83;25.20;;;14.60;99.90;;;;;;4999389;28;91689;-32
2023/05/09 06:07:05;;;;;;;31.55;25.10;;;14.70;99.90;;;;;;4997282;28;90398;-34
2023/05/09 06:09:31;;;;;;;32.05;24.90;;;14.70;99.90;;;;;;4985012;28;90235;-31
2023/05/09 06:11:56;;;;;;;33.25;26.98;;;14.70;99.90;;;;;;4988589;28;90228;-31
2023/05/09 06:14:22;;;;;;;31.23;25.52;;;14.70;99.90;;;;;;4983963;28;89867;-34
2023/05/09 06:16:47;;;;;;;29.67;25.40;;;14.70;99.90;;;;;;4998020;28;88207;-32
2023/05/09 06:19:13;;;;;;;35.22;26.25;;;14.70;99.90;;;;;;4998463;28;89204;-33
2023/05/09 06:21:39;;;;;;;31.50;24.42;;;14.70;99.90;;;;;;4996882;28;90887;-32
2023/05/09 06:24:05;;;;;;;30.73;25.98;;;14.80;99.90;;;;;;4979602;28;89689;-31
2023/05/09 06:26:30;;;;;;;31.75;24.02;;;14.80;99.90;;;;;;4991610;28;89543;-35
2023/05/09 06:28:56;;;;;;;28.17;24.02;;;14.80;99.90;;;;;;4996018;28;90065;-31
2023/05/09 06:31:22;;;;;;;37.20;27.10;;;14.80;99.90;;;;;;4992949;28;89899;-33
2023/05/09 06:33:47;;;;;;;30.85;25.48;;;14.90;99.90;;;;;;4997812;28;89755;-36
2023/05/09 06:36:13;;;;;;;27.60;22.88;;;14.90;99.90;;;;;;4992930;28;90036;-33
2023/05/09 06:38:39;;;;;;;29.27;23.75;;;14.90;99.90;;;;;;4995997;28;88355;-32
2023/05/09 06:41:04;;;;;;;29.67;25.13;;;14.90;99.90;;;;;;4995369;28;92128;-35
2023/05/09 06:43:30;;;;;;;29.25;24.40;;;15.00;99.90;;;;;;4997535;28;89950;-34
2023/05/09 06:45:55;;;;;;;30.27;27.02;;;15.10;99.90;;;;;;4993510;28;89036;-31
2023/05/09 06:48:22;;;;;;;29.17;23.10;;;15.10;99.90;;;;;;4996370;28;88817;-35
2023/05/09 06:50:48;;;;;;;28.80;22.20;;;15.20;99.90;;;;;;4996874;28;90729;-34
2023/05/09 06:53:14;;;;;;;36.15;26.80;;;15.20;99.90;;;;;;4995686;28;90686;-31
2023/05/09 06:55:40;;;;;;;33.72;25.60;;;15.20;99.90;;;;;;4992375;28;90204;-36
2023/05/09 06:58:06;;;;;;;28.40;21.60;;;15.20;99.90;;;;;;4995869;28;88038;-36
2023/05/09 07:00:32;;;;;;;28.25;22.27;;;15.20;99.90;;;;;;4992454;28;90094;-34
2023/05/09 07:02:57;;;;;;;28.58;25.23;;;15.30;99.90;;;;;;4996189;28;90283;-31
2023/05/09 07:05:23;;;;;;;28.88;23.85;;;15.20;99.90;;;;;;4993570;28;90873;-31
2023/05/09 07:07:49;;;;;;;33.65;25.73;;;15.20;99.90;;;;;;4995060;28;88556;-34
2023/05/09 07:10:14;;;;;;;32.17;25.95;;;15.30;99.90;;;;;;4994766;28;90357;-31
2023/05/09 07:12:40;;;;;;;32.65;24.88;;;15.30;99.90;;;;;;4994652;28;89840;-31
2023/05/09 07:15:06;;;;;;;33.17;27.77;;;15.30;99.90;;;;;;4991894;28;89996;-32
2023/05/09 07:17:32;;;;;;;33.28;25.45;;;15.30;99.90;;;;;;4992922;28;91288;-36
2023/05/09 07:19:58;;;;;;;32.80;24.88;;;15.30;99.90;;;;;;4997521;28;89747;-35
2023/05/09 07:22:23;;;;;;;32.72;24.77;;;15.30;99.90;;;;;;4998183;28;89914;-32
2023/05/09 07:24:49;;;;;;;32.25;25.17;;;15.30;99.90;;;;;;4983223;28;89938;-34
2023/05/09 07:27:15;;;;;;;37.08;27.60;;;15.30;99.90;;;;;;4977718;28;90068;-33
2023/05/09 07:29:41;;;;;;;33.42;26.77;;;15.30;99.90;;;;;;4978078;28;90222;-33
2023/05/09 07:32:06;;;;;;;38.55;25.00;;;15.30;99.90;;;;;;4978533;28;89271;-32
2023/05/09 07:34:32;;;;;;;35.20;25.40;;;15.30;99.90;;;;;;4978768;28;89273;-32
2023/05/09 07:36:58;;;;;;;28.35;24.30;;;15.20;99.90;;;;;;4979317;28;89705;-37
2023/05/09 07:39:23;;;;;;;38.85;26.70;;;15.30;99.90;;;;;;4995135;28;90910;-30
2023/05/09 07:41:49;;;;;;;33.17;25.80;;;15.30;99.90;;;;;;4976541;28;91125;-31
2023/05/09 07:44:15;;;;;;;38.30;26.70;;;15.30;99.90;;;;;;4978656;28;89754;-31
2023/05/09 07:46:40;;;;;;;38.72;27.45;;;15.30;99.90;;;;;;4978997;28;88972;-34
2023/05/09 07:49:07;;;;;;;38.25;28.38;;;15.30;99.90;;;;;;4992200;28;89122;-37
2023/05/09 07:51:32;;;;;;;41.85;26.67;;;15.40;99.90;;;;;;4978720;28;89844;-35
2023/05/09 07:53:58;;;;;;;34.25;27.48;;;15.40;99.90;;;;;;4978410;28;89689;-31
2023/05/09 07:56:25;;;;;;;43.03;29.85;;;15.50;99.90;;;;;;4978592;28;89935;-32
2023/05/09 07:58:50;;;;;;;38.50;28.17;;;15.50;99.90;;;;;;4979100;28;90068;-32
2023/05/09 08:01:17;;;;;;;40.22;28.23;;;15.50;99.90;;;;;;4987869;28;89508;-34
2023/05/09 08:03:43;;;;;;;36.17;25.92;;;15.60;99.90;;;;;;4981085;28;89515;-34
2023/05/09 08:06:08;;;;;;;43.03;31.00;;;15.70;99.90;;;;;;4977721;28;88603;-34
2023/05/09 08:08:34;;;;;;;41.90;28.30;;;15.70;99.90;;;;;;4982331;28;90316;-33
2023/05/09 08:11:00;;;;;;;36.80;28.70;;;15.70;99.90;;;;;;4996885;28;89710;-33
2023/05/09 08:13:25;;;;;;;37.85;28.17;;;15.80;99.90;;;;;;4980926;28;90326;-32
2023/05/09 08:15:51;;;;;;;40.40;28.33;;;15.80;99.90;;;;;;4979290;28;88225;-31
2023/05/09 08:18:16;;;;;;;40.95;28.25;;;15.90;99.90;;;;;;4983582;28;90354;-35
2023/05/09 08:20:42;;;;;;;39.67;31.08;;;16.00;99.90;;;;;;4997653;28;89496;-32
2023/05/09 08:23:08;;;;;;;39.13;28.05;;;16.10;99.90;;;;;;4983553;28;89334;-34
2023/05/09 08:25:33;;;;;;;44.67;28.50;;;16.10;99.90;;;;;;4990490;28;90070;-33
2023/05/09 08:27:59;;;;;;;38.13;29.10;;;16.20;99.90;;;;;;4990756;28;89767;-31
2023/05/09 08:30:25;;;;;;;41.58;29.42;;;16.20;99.90;;;;;;4995833;28;89959;-36
2023/05/09 08:32:51;;;;;;;37.92;29.75;;;16.30;99.90;;;;;;4996505;28;90224;-35
2023/05/09 08:35:17;;;;;;;41.00;29.67;;;16.30;99.90;;;;;;4997257;28;89828;-34
2023/05/09 08:37:42;;;;;;;42.72;29.02;;;16.40;99.90;;;;;;4996341;28;90649;-34
2023/05/09 08:40:09;;;;;;;50.95;31.23;;;16.40;99.90;;;;;;4996786;28;90243;-31
2023/05/09 08:42:36;;;;;;;38.42;27.95;;;16.40;99.90;;;;;;4995465;28;90321;-35
2023/05/09 08:45:09;;;;;;;46.35;31.67;;;16.40;99.90;;;;;;4995806;28;88415;-33
2023/05/09 08:47:36;;;;;;;37.58;27.10;;;16.50;99.90;;;;;;4995997;28;90189;-31
2023/05/09 08:50:03;;;;;;;45.33;32.78;;;16.50;99.90;;;;;;4997337;28;90391;-35
2023/05/09 08:52:33;;;;;;;47.17;32.75;;;16.50;99.90;;;;;;4996185;28;90326;-31
2023/05/09 08:55:00;;;;;;;45.78;30.25;;;16.50;99.90;;;;;;4999941;28;90317;-30
2023/05/09 08:57:26;;;;;;;41.55;29.23;;;16.50;99.90;;;;;;4999380;28;91400;-32
2023/05/09 08:59:53;;;;;;;49.50;32.47;;;16.60;99.90;;;;;;5000476;28;89897;-36
2023/05/09 09:02:19;;;;;;;37.88;27.58;;;16.70;99.90;;;;;;4999577;28;89344;-32
2023/05/09 09:04:44;;;;;;;46.33;30.90;;;16.70;99.90;;;;;;4999516;28;88580;-34
2023/05/09 09:07:12;;;;;;;44.47;29.95;;;16.80;99.90;;;;;;4999115;28;89797;-33
2023/05/09 09:09:44;;;;;;;40.22;31.20;;;16.90;99.90;;;;;;4999157;28;90179;-36
2023/05/09 09:12:11;;;;;;;40.45;31.33;;;16.90;99.90;;;;;;4988057;28;89809;-37
2023/05/09 09:14:44;;;;;;;46.80;32.28;;;17.00;99.90;;;;;;4999610;28;89724;-33
2023/05/09 09:17:13;;;;;;;42.75;29.80;;;17.00;99.90;;;;;;4999023;28;90047;-30
2023/05/09 09:19:41;;;;;;;43.80;32.80;;;17.00;99.90;;;;;;4999600;28;90882;-34
2023/05/09 09:22:11;;;;;;;48.25;32.30;;;17.00;99.90;;;;;;4994028;28;89345;-34
2023/05/09 09:24:36;;;;;;;44.88;35.03;;;17.00;99.90;;;;;;4981088;28;89782;-35
2023/05/09 09:27:06;;;;;;;47.60;31.17;;;17.00;99.90;;;;;;4980295;28;91798;-34
2023/05/09 09:29:32;;;;;;;47.47;31.13;;;17.00;99.90;;;;;;4978305;28;89481;-32
2023/05/09 09:32:01;;;;;;;45.78;32.45;;;17.10;99.90;;;;;;4979830;28;89207;-31
2023/05/09 09:34:27;;;;;;;45.35;32.35;;;17.20;99.90;;;;;;4981230;28;88250;-34
2023/05/09 09:36:53;;;;;;;44.80;34.70;;;17.20;99.90;;;;;;4981303;28;91095;-30
2023/05/09 09:39:20;;;;;;;48.88;33.03;;;17.30;99.90;;;;;;4980984;28;89597;-32
2023/05/09 09:41:46;;;;;;;48.72;33.58;;;17.30;99.90;;;;;;4980474;28;89427;-35
2023/05/09 09:44:19;;;;;;;57.38;36.53;;;17.30;99.90;;;;;;4982135;28;90308;-33
2023/05/09 09:46:46;;;;;;;47.20;35.85;;;17.40;99.90;;;;;;4991116;28;90236;-31
2023/05/09 09:49:13;;;;;;;54.10;37.10;;;17.40;99.90;;;;;;4984372;28;89299;-32
2023/05/09 09:51:39;;;;;;;51.63;36.33;;;17.60;99.90;;;;;;4990016;28;89026;-36
2023/05/09 09:54:10;;;;;;;49.97;33.78;;;17.50;99.90;;;;;;4980760;28;89210;-35
2023/05/09 09:56:50;;;;;;;45.15;32.85;;;17.50;99.90;;;;;;4980204;28;90611;-33
2023/05/09 09:59:26;;;;;;;49.67;35.83;;;17.50;99.90;;;;;;4979880;28;89330;-32
2023/05/09 10:02:07;;;;;;;43.40;33.58;;;17.50;99.90;;;;;;4992281;28;89922;-35
2023/05/09 10:04:35;;;;;;;45.65;31.33;;;17.40;99.90;;;;;;4986992;28;90238;-32
2023/05/09 10:07:03;;;;;;;45.75;31.75;;;17.30;99.90;;;;;;4985057;28;90795;-31
2023/05/09 10:09:28;;;;;;;;;;;17.30;99.90;;;;;;4988968;28;90645;-34
2023/05/09 10:11:55;;;;;;;41.80;31.17;;;17.20;99.90;;;;;;4988125;28;89460;-35
2023/05/09 10:14:25;;;;;;;47.40;34.53;;;17.20;99.90;;;;;;4990951;28;89089;-33
2023/05/09 10:16:53;;;;;;;50.28;35.58;;;17.20;99.90;;;;;;4998307;28;90595;-34
2023/05/09 10:19:20;;;;;;;51.25;35.22;;;17.20;99.90;;;;;;4999138;28;89196;-32
2023/05/09 10:21:56;;;;;;;51.28;38.22;;;17.10;99.90;;;;;;4992539;28;90897;-31
2023/05/09 10:25:00;;;;;;;54.72;38.42;;;17.10;99.90;;;;;;4989597;28;87948;-34
2023/05/09 10:27:27;;;;;;;57.72;37.30;;;17.10;99.90;;;;;;4958988;28;90101;-32
2023/05/09 10:30:15;;;;;;;55.55;39.70;;;17.20;99.90;;;;;;4989056;28;89847;-32
2023/05/09 10:33:00;;;;;;;;;;;17.20;99.90;;;;;;4992768;28;88287;-33
2023/05/09 10:35:35;;;;;;;51.15;34.03;;;17.20;99.90;;;;;;4995856;28;89490;-35
2023/05/09 10:38:01;;;;;;;54.75;35.58;;;17.20;99.90;;;;;;4986844;28;90492;-31
2023/05/09 10:40:31;;;;;;;57.03;38.13;;;17.30;99.90;;;;;;4983776;28;90164;-34
2023/05/09 10:42:57;;;;;;;56.75;37.35;;;17.40;99.90;;;;;;4986511;28;90761;-35
2023/05/09 10:45:23;;;;;;;52.85;35.55;;;17.40;99.90;;;;;;4989978;28;90145;-32
2023/05/09 10:47:51;;;;;;;58.30;38.15;;;17.50;99.90;;;;;;4991105;28;90812;-31
2023/05/09 10:50:18;;;;;;;67.00;41.55;;;17.60;99.90;;;;;;4989178;28;90093;-32
2023/05/09 10:53:13;;;;;;;53.08;38.60;;;17.60;99.90;;;;;;4993334;28;90339;-31
2023/05/09 10:55:59;;;;;;;56.40;36.83;;;17.70;99.90;;;;;;4982760;28;90025;-32
2023/05/09 10:58:28;;;;;;;61.88;38.42;;;17.70;99.90;;;;;;4988144;28;90328;-33
2023/05/09 11:00:56;;;;;;;66.07;40.65;;;17.60;99.90;;;;;;4981526;28;90827;-29
2023/05/09 11:03:23;;;;;;;;;;;17.60;99.90;;;;;;4992223;28;90204;-33
2023/05/09 11:05:54;;;;;;;55.97;39.85;;;17.60;99.90;;;;;;4983586;28;89661;-32
2023/05/09 11:08:26;;;;;;;62.50;42.65;;;17.70;99.90;;;;;;4991978;28;90151;-32
2023/05/09 11:10:54;;;;;;;62.40;40.67;;;17.70;99.90;;;;;;4980165;28;88688;-34
2023/05/09 11:13:26;;;;;;;65.40;41.20;;;17.70;99.90;;;;;;4981412;28;89531;-32
2023/05/09 11:16:00;;;;;;;67.70;44.65;;;17.80;99.90;;;;;;4978699;28;88289;-33
2023/05/09 11:18:27;;;;;;;67.97;43.65;;;18.10;99.90;;;;;;4986290;28;90188;-33
2023/05/09 11:20:54;;;;;;;64.25;41.58;;;18.30;99.90;;;;;;4989671;28;89745;-33
2023/05/09 11:23:22;;;;;;;64.60;41.05;;;18.30;99.90;;;;;;4993123;28;90846;-32
2023/05/09 11:25:50;;;;;;;71.30;42.80;;;18.40;99.90;;;;;;4997690;28;88900;-35
2023/05/09 11:28:33;;;;;;;64.95;42.60;;;18.60;99.90;;;;;;4997251;28;90308;-32
2023/05/09 11:31:10;;;;;;;77.78;49.00;;;18.60;99.90;;;;;;4994660;28;89892;-31
2023/05/09 11:33:37;;;;;;;69.43;43.67;;;18.70;99.90;;;;;;4984931;28;90886;-32
2023/05/09 11:36:18;;;;;;;71.67;46.23;;;18.80;99.90;;;;;;4996565;28;90076;-33
2023/05/09 11:38:45;;;;;;;65.03;41.90;;;18.90;99.90;;;;;;4996786;28;89293;-35
2023/05/09 11:41:11;;;;;;;71.47;43.25;;;19.00;99.90;;;;;;4994713;28;89982;-33
2023/05/09 11:43:38;;;;;;;69.57;45.40;;;19.00;99.90;;;;;;4990561;28;89501;-35
2023/05/09 11:46:04;;;;;;;73.15;46.65;;;19.00;99.90;;;;;;4984440;28;88938;-33
2023/05/09 11:48:30;;;;;;;71.60;46.63;;;19.00;99.90;;;;;;4988411;28;90036;-36
2023/05/09 11:50:56;;;;;;;71.25;46.33;;;19.00;99.90;;;;;;4986321;28;90409;-35
2023/05/09 11:53:21;;;;;;;75.38;46.03;;;18.90;99.90;;;;;;4980776;28;90814;-35
2023/05/09 11:55:47;;;;;;;68.80;46.38;;;18.90;99.90;;;;;;4984851;28;87597;-33
2023/05/09 11:58:14;;;;;;;73.93;46.47;;;18.90;99.90;;;;;;4980985;28;90325;-32
2023/05/09 12:00:46;;;;;;;67.03;44.20;;;18.80;99.90;;;;;;4984402;28;89656;-32
2023/05/09 12:03:12;;;;;;;70.65;46.03;;;18.80;99.90;;;;;;4996622;28;89789;-31
2023/05/09 12:05:38;;;;;;;80.43;48.38;;;18.70;99.90;;;;;;4996361;28;89425;-35
2023/05/09 12:08:05;;;;;;;71.50;44.08;;;18.60;99.90;;;;;;4997573;28;91917;-33
2023/05/09 12:10:35;;;;;;;75.80;45.50;;;18.50;99.90;;;;;;4995606;28;90481;-34
2023/05/09 12:13:00;;;;;;;77.72;46.13;;;18.40;99.90;;;;;;4988680;28;89792;-32
2023/05/09 12:15:26;;;;;;;79.15;49.80;;;18.30;99.90;;;;;;4995364;28;90285;-36
2023/05/09 12:18:06;;;;;;;85.80;53.75;;;18.20;99.90;;;;;;4997091;28;89875;-32
2023/05/09 12:20:49;;;;;;;88.10;53.92;;;18.00;99.90;;;;;;4997391;28;89650;-34
2023/05/09 12:23:14;;;;;;;80.53;47.83;;;17.90;99.90;;;;;;4996424;28;89301;-35
2023/05/09 12:25:54;;;;;;;85.28;53.42;;;17.80;99.90;;;;;;4997165;28;89500;-32
2023/05/09 12:28:24;;;;;;;77.90;51.60;;;17.70;99.90;;;;;;4994726;28;90095;-31
2023/05/09 12:30:51;;;;;;;84.45;50.20;;;17.70;99.90;;;;;;5001433;28;89942;-35